Time;durP1;ratioP1;P1;durP2;ratioP2;P2;SDS_P1;SDS_P2;PMS_P1;PMS_P2;Temp;Humidity;BMP_temperature;BMP_pressure;BME280_temperature;BME280_humidity;BME280_pressure;Samples;Min_cycle;Max_cycle;Signal;HPM_P1;HPM_P2
2023/12/01 00:00:05;;;;;;;69.43;29.42;;;;;;;-144.05;79.68;57101.59;5009136;28;20034;-85
2023/12/01 00:02:32;;;;;;;84.13;31.98;;;;;;;-144.05;79.65;57084.59;4973990;28;20045;-85
2023/12/01 00:04:58;;;;;;;72.43;28.27;;;;;;;-144.05;79.70;57120.72;4967614;28;20057;-86
2023/12/01 00:07:24;;;;;;;78.35;30.75;;;;;;;-144.05;79.74;57107.97;4966165;28;20498;-85
2023/12/01 00:09:52;;;;;;;114.00;36.42;;;;;;;-144.05;79.75;57080.34;4968303;28;20038;-84
2023/12/01 00:12:18;;;;;;;104.72;39.10;;;;;;;-144.05;78.75;57088.84;4980230;28;20114;-85
2023/12/01 00:14:44;;;;;;;112.38;37.03;;;;;;;-144.05;78.79;57095.22;5002495;28;20021;-85
2023/12/01 00:17:11;;;;;;;99.88;38.40;;;;;;;-144.05;78.03;57122.84;4995396;28;20060;-84
2023/12/01 00:19:37;;;;;;;101.20;38.17;;;;;;;-144.05;77.79;57114.34;4967380;28;20080;-86
2023/12/01 00:22:04;;;;;;;99.15;37.72;;;;;;;-144.05;77.73;57131.31;4958479;28;20085;-85
2023/12/01 00:24:30;;;;;;;101.07;38.35;;;;;;;-144.05;77.55;57080.34;4958562;28;20090;-86
2023/12/01 00:26:56;;;;;;;100.25;36.33;;;;;;;-144.05;77.48;57093.09;4971813;28;20033;-83
2023/12/01 00:29:22;;;;;;;96.07;35.50;;;;;;;-144.05;77.69;57107.97;4980521;28;20042;-85
2023/12/01 00:31:49;;;;;;;93.28;34.83;;;;;;;-144.05;77.95;57110.09;4978992;28;20054;-85
2023/12/01 00:34:15;;;;;;;88.38;35.00;;;;;;;-144.05;78.25;57103.72;4979054;28;20031;-85
2023/12/01 00:36:41;;;;;;;90.28;33.17;;;;;;;-144.05;78.13;57110.09;4979403;28;20031;-83
2023/12/01 00:39:07;;;;;;;86.20;31.60;;;;;;;-144.05;78.21;57107.97;4979083;28;20464;-84
2023/12/01 00:41:34;;;;;;;85.60;31.90;;;;;;;-144.05;78.01;57084.59;4993772;28;20052;-84
2023/12/01 00:44:00;;;;;;;82.45;31.27;;;;;;;-144.05;77.80;57073.97;4978068;28;20530;-82
2023/12/01 00:46:26;;;;;;;91.55;34.28;;;;;;;-144.05;77.85;57137.69;4978040;28;20045;-83
2023/12/01 00:48:53;;;;;;;81.65;33.15;;;;;;;-144.05;77.99;57082.47;4986726;28;20037;-86
2023/12/01 00:51:20;;;;;;;75.82;29.73;;;;;;;-144.05;78.07;57105.84;4977518;28;20434;-84
2023/12/01 00:53:49;;;;;;;62.72;25.33;;;0.70;99.90;;;-144.05;77.46;57090.97;4977426;28;20027;-83
2023/12/01 00:56:15;;;;;;;55.70;22.80;;;;;;;-144.05;77.52;57080.34;4971477;28;20043;-83
2023/12/01 00:58:42;;;;;;;53.35;21.52;;;;;;;-144.05;77.03;57107.97;4976405;28;20102;-87
2023/12/01 01:01:08;;;;;;;57.55;25.58;;;;;;;-144.05;76.93;57084.59;4991071;28;20084;-86
2023/12/01 01:03:35;;;;;;;78.60;30.65;;;0.60;99.90;;;-144.05;76.72;57086.72;4975532;28;20023;-83
2023/12/01 01:06:03;;;;;;;80.68;31.88;;;;;;;-144.05;76.24;57084.59;4964384;28;20407;-84
2023/12/01 01:08:30;;;;;;;79.07;31.33;;;;;;;-144.05;76.73;57103.72;4958867;28;20031;-87
2023/12/01 01:10:57;;;;;;;79.28;31.40;;;;;;;-144.05;77.07;57088.84;4968851;28;20435;-84
2023/12/01 01:13:28;;;;;;;66.82;27.48;;;0.70;99.90;;;-144.05;77.01;57120.72;4977725;28;20038;-83
2023/12/01 01:15:55;;;;;;;72.07;30.45;;;0.70;99.90;;;-144.05;76.56;57112.22;4968095;28;20031;-85
2023/12/01 01:18:21;;;;;;;66.80;28.15;;;;;;;-144.05;76.36;57114.34;4961605;28;20046;-81
2023/12/01 01:20:48;;;;;;;63.38;26.65;;;-2.90;99.90;;;-144.05;77.25;57135.56;4976011;28;20031;-86
2023/12/01 01:23:14;;;;;;;66.32;27.50;;;;;;;-144.05;77.66;57103.72;4964806;28;20046;-81
2023/12/01 01:25:40;;;;;;;74.38;28.17;;;;;;;-144.05;77.20;57116.47;4977699;28;20026;-85
2023/12/01 01:28:07;;;;;;;63.80;26.83;;;;;;;-144.05;76.96;57101.59;4976286;28;20442;-83
2023/12/01 01:30:34;;;;;;;63.47;25.63;;;;;;;-144.05;76.91;57097.34;4976205;28;20032;-83
2023/12/01 01:33:00;;;;;;;65.47;27.58;;;;;;;-144.05;77.07;57116.47;4957974;28;20035;-85
2023/12/01 01:35:26;;;;;;;57.95;24.77;;;;;;;-144.05;76.82;57067.59;4976534;28;20094;-84
2023/12/01 01:37:53;;;;;;;61.38;24.75;;;;;;;-144.05;76.94;57082.47;4969601;28;20032;-84
2023/12/01 01:40:19;;;;;;;65.70;26.23;;;;;;;-144.05;77.06;57129.22;4972390;28;20057;-83
2023/12/01 01:42:45;;;;;;;58.97;24.15;;;;;;;-144.05;76.71;57107.97;4966989;28;20035;-85
2023/12/01 01:45:11;;;;;;;64.50;23.88;;;;;;;-144.05;76.77;57056.97;4986729;28;20023;-85
2023/12/01 01:47:38;;;;;;;57.90;24.55;;;;;;;-144.05;76.59;57097.34;4975817;28;20088;-86
2023/12/01 01:50:06;;;;;;;56.42;24.42;;;;;;;-144.05;76.38;57118.59;4987535;28;20030;-86
2023/12/01 01:52:35;;;;;;;58.05;24.58;;;;;;;-144.05;76.08;57088.84;4992076;28;20042;-85
2023/12/01 01:55:02;;;;;;;62.03;23.13;;;0.80;99.90;;;-144.05;75.92;57099.47;4967938;28;20451;-86
2023/12/01 01:57:40;;;;;;;60.63;22.90;;;0.80;99.90;;;-144.05;76.24;57110.09;4977304;28;20031;-84
2023/12/01 02:00:07;;;;;;;57.35;22.40;;;;;;;-144.05;75.99;57078.22;4989750;28;20039;-82
2023/12/01 02:02:36;;;;;;;51.92;21.50;;;0.60;99.90;;;-144.05;76.02;57101.59;4970920;28;20049;-84
2023/12/01 02:05:02;;;;;;;57.08;23.77;;;;;;;-144.05;75.90;57093.09;4969031;28;20085;-83
2023/12/01 02:07:28;;;;;;;50.90;21.48;;;;;;;-144.05;75.52;57088.84;4976789;28;20091;-84
2023/12/01 02:09:55;;;;;;;52.10;21.88;;;;;;;-144.05;75.96;57071.84;4974405;28;20027;-85
2023/12/01 02:12:21;;;;;;;52.63;23.35;;;;;;;-144.05;76.14;57093.09;4991389;28;20080;-85
2023/12/01 02:14:47;;;;;;;63.28;24.45;;;;;;;-144.05;75.73;57084.59;4972941;28;20034;-83
2023/12/01 02:17:14;;;;;;;61.10;24.63;;;;;;;-144.05;76.04;57112.22;4979381;28;20031;-83
2023/12/01 02:19:40;;;;;;;63.03;27.20;;;;;;;-144.05;75.77;57067.59;4973302;28;20084;-84
2023/12/01 02:22:06;;;;;;;69.57;29.77;;;;;;;-144.05;76.15;57088.84;4973903;28;20399;-85
2023/12/01 02:24:32;;;;;;;64.82;28.65;;;;;;;-144.05;76.04;57080.34;4965496;28;20034;-83
2023/12/01 02:26:58;;;;;;;76.05;30.85;;;;;;;-144.05;75.76;57073.97;4975395;28;20011;-82
2023/12/01 02:29:25;;;;;;;77.00;30.10;;;;;;;-144.05;75.68;57054.88;5000231;28;20046;-83
2023/12/01 02:31:51;;;;;;;73.50;30.10;;;;;;;-144.05;76.30;57056.97;4978986;28;20035;-83
2023/12/01 02:34:21;;;;;;;73.00;32.03;;;;;;;-144.05;76.00;57116.47;4982570;28;20049;-81
2023/12/01 02:36:47;;;;;;;67.00;28.27;;;;;;;-144.05;75.94;57107.97;4978529;28;20020;-83
2023/12/01 02:39:13;;;;;;;65.78;28.20;;;;;;;-144.05;75.17;57061.22;4967966;28;20056;-85
2023/12/01 02:41:39;;;;;;;67.22;29.15;;;;;;;-144.05;75.94;57093.09;5009144;28;20104;-83
2023/12/01 02:44:06;;;;;;;63.22;27.73;;;;;;;-144.05;75.75;57073.97;4963618;28;20031;-81
2023/12/01 02:46:32;;;;;;;63.47;28.45;;;;;;;-144.05;75.90;57093.09;4977005;28;20074;-83
2023/12/01 02:48:59;;;;;;;59.38;27.17;;;;;;;-144.05;76.23;57088.84;5000723;28;20031;-81
2023/12/01 02:51:25;;;;;;;54.88;26.27;;;;;;;-144.05;75.45;57118.59;4975536;28;20059;-84
2023/12/01 02:53:51;;;;;;;50.65;22.73;;;;;;;-144.05;75.58;57127.09;4985742;28;20027;-83
2023/12/01 02:56:18;;;;;;;49.20;22.63;;;;;;;-144.05;74.68;57105.84;5015391;28;20062;-85
2023/12/01 02:58:44;;;;;;;47.22;22.25;;;;;;;-144.05;74.34;57114.34;4968515;28;20393;-83
2023/12/01 03:01:10;;;;;;;46.33;22.50;;;;;;;-144.05;74.69;57116.47;4968174;28;20035;-83
2023/12/01 03:03:36;;;;;;;46.63;21.25;;;;;;;-144.05;74.22;57129.22;4969228;28;20384;-82
2023/12/01 03:06:03;;;;;;;49.92;22.60;;;;;;;-144.05;74.43;57095.22;4972033;28;20093;-84
2023/12/01 03:08:29;;;;;;;53.95;24.52;;;;;;;-144.05;75.25;57095.22;4962230;28;20479;-85
2023/12/01 03:10:56;;;;;;;51.10;23.58;;;;;;;-144.05;75.25;57120.72;4981718;28;20096;-82
2023/12/01 03:13:23;;;;;;;52.28;22.17;;;0.60;99.90;;;-144.05;75.06;57105.84;4984762;28;20103;-83
2023/12/01 03:15:50;;;;;;;55.13;24.25;;;;;;;-144.05;75.29;57146.19;4978194;28;20034;-85
2023/12/01 03:18:18;;;;;;;51.25;22.20;;;;;;;-144.05;75.90;57097.34;5014674;28;20039;-83
2023/12/01 03:20:44;;;;;;;45.20;22.15;;;;;;;-144.05;75.60;57133.44;4972158;28;20031;-84
2023/12/01 03:23:11;;;;;;;44.58;20.40;;;;;;;-144.05;75.11;57095.22;4964190;28;20125;-82
2023/12/01 03:25:37;;;;;;;45.50;21.42;;;;;;;-144.05;74.66;57080.34;4966205;28;20547;-86
2023/12/01 03:28:04;;;;;;;39.17;17.70;;;;;;;-144.05;75.78;57112.22;4956821;28;20173;-84
2023/12/01 03:30:30;;;;;;;39.83;16.65;;;;;;;-144.05;75.72;57124.97;4977551;28;20094;-83
2023/12/01 03:32:56;;;;;;;29.02;13.25;;;;;;;-144.05;75.67;57107.97;5047800;28;20483;-84
2023/12/01 03:35:24;;;;;;;21.33;10.38;;;0.30;99.90;;;-144.05;75.23;57137.69;4977729;28;20108;-84
2023/12/01 03:37:56;;;;;;;24.30;11.40;;;0.40;99.90;;;-144.05;74.19;57120.72;4970058;28;20046;-83
2023/12/01 03:40:23;;;;;;;24.52;12.35;;;;;;;-144.05;73.28;57097.34;4983859;28;20031;-84
2023/12/01 03:42:51;;;;;;;27.25;12.63;;;;;;;-144.05;73.20;57124.97;4965906;28;20030;-83
2023/12/01 03:45:17;;;;;;;21.63;10.88;;;;;;;-144.05;73.11;57103.72;4970263;28;20041;-85
2023/12/01 03:47:49;;;;;;;21.98;10.25;;;0.20;99.90;;;-144.05;72.91;57110.09;4971124;28;20019;-86
2023/12/01 03:50:18;;;;;;;19.52;8.90;;;0.10;99.90;;;-144.05;72.76;57105.84;4970971;28;20027;-83
2023/12/01 03:52:51;;;;;;;17.63;9.23;;;0.30;99.90;;;-144.05;72.89;57127.09;4991621;28;20026;-84
2023/12/01 03:55:17;;;;;;;25.40;12.20;;;;;;;-144.05;72.99;57144.06;4965991;28;20510;-84
2023/12/01 03:57:45;;;;;;;28.33;13.45;;;0.30;99.90;;;-144.05;72.96;57112.22;4971029;28;20503;-84
2023/12/01 04:00:18;;;;;;;26.05;12.20;;;0.30;99.90;;;-144.05;73.00;57135.56;4991480;28;20035;-84
2023/12/01 04:02:47;;;;;;;26.25;12.20;;;0.30;99.90;;;-144.05;73.03;57118.59;4969225;28;20114;-85
2023/12/01 04:05:17;;;;;;;27.17;12.85;;;0.30;99.90;;;-144.05;72.85;57120.72;4955302;28;20407;-85
2023/12/01 04:07:50;;;;;;;32.70;14.32;;;;;;;-144.05;72.90;57099.47;4978373;28;20089;-86
2023/12/01 04:10:16;;;;;;;31.95;14.00;;;;;;;-144.05;73.30;57122.84;4972199;28;20035;-85
2023/12/01 04:12:44;;;;;;;37.00;16.60;;;;;;;-144.05;73.40;57114.34;4979804;28;20042;-85
2023/12/01 04:15:19;;;;;;;43.30;16.88;;;;;;;-144.05;73.41;57139.81;4989548;28;20038;-86
2023/12/01 04:17:48;;;;;;;39.47;17.92;;;-0.30;99.90;;;-144.05;73.02;57110.09;4969753;28;20138;-85
2023/12/01 04:20:20;;;;;;;44.20;18.00;;;0.30;99.90;;;-144.05;73.35;57093.09;4973498;28;20031;-85
2023/12/01 04:22:55;;;;;;;39.22;16.33;;;0.20;99.90;;;-144.05;73.35;57114.34;4971231;28;20035;-85
2023/12/01 04:25:22;;;;;;;40.88;15.75;;;;;;;-144.05;73.03;57097.34;4974035;28;20183;-84
2023/12/01 04:27:51;;;;;;;33.70;15.30;;;;;;;-144.05;73.41;57090.97;4962933;28;20062;-85
2023/12/01 04:30:18;;;;;;;40.65;16.48;;;;;;;-144.05;73.74;57133.44;4980733;28;20026;-84
2023/12/01 04:32:52;;;;;;;46.70;19.80;;;0.40;99.90;;;-144.05;74.70;57127.09;4996376;28;20035;-83
2023/12/01 04:35:19;;;;;;;48.42;19.40;;;;;;;-144.05;75.39;57116.47;4987598;28;20670;-85
2023/12/01 04:37:46;;;;;;;44.15;17.55;;;;;;;-144.05;75.53;57133.44;4974282;28;20045;-84
2023/12/01 04:40:14;;;;;;;74.20;27.45;;;;;;;-144.05;75.35;57103.72;4966693;28;20031;-86
2023/12/01 04:42:45;;;;;;;50.38;19.65;;;;;;;-144.05;74.43;57101.59;4968951;28;20522;-85
2023/12/01 04:45:13;;;;;;;47.15;17.15;;;;;;;-144.05;75.24;57150.44;4975405;28;20039;-82
2023/12/01 04:47:41;;;;;;;40.00;17.90;;;0.20;99.90;;;-144.05;75.52;57127.09;4983288;28;20169;-84
2023/12/01 04:50:13;;;;;;;45.58;20.13;;;0.20;99.90;;;-144.05;75.40;57116.47;5005247;28;20438;-84
2023/12/01 04:52:46;;;;;;;45.70;17.77;;;;;;;-144.05;75.08;57107.97;4976242;28;20404;-83
2023/12/01 04:55:16;;;;;;;41.03;15.95;;;0.20;99.90;;;-144.05;75.25;57103.72;4985316;28;20030;-83
2023/12/01 04:57:44;;;;;;;44.10;17.77;;;-0.60;99.90;;;-144.05;75.42;57101.59;4973965;28;20469;-83
2023/12/01 05:00:22;;;;;;;41.58;16.42;;;0.90;99.90;;;-144.05;75.28;57118.59;4973392;28;20035;-86
2023/12/01 05:02:55;;;;;;;38.08;16.02;;;-0.10;99.90;;;-144.05;74.10;57105.84;4973875;28;20035;-86
2023/12/01 05:05:25;;;;;;;30.05;13.85;;;-0.60;99.90;;;-144.05;74.09;57129.22;4992142;28;20517;-84
2023/12/01 05:07:57;;;;;;;36.15;15.85;;;0.20;99.90;;;-144.05;74.39;57103.72;4966122;28;20097;-83
2023/12/01 05:10:27;;;;;;;35.17;16.42;;;0.10;99.90;;;-144.05;73.79;57112.22;4975867;28;20423;-85
2023/12/01 05:13:07;;;;;;;28.90;12.45;;;-0.10;99.90;;;-144.05;73.58;57137.69;4996969;28;20035;-85
2023/12/01 05:15:36;;;;;;;29.50;11.45;;;;;;;-144.05;74.08;57116.47;4982298;28;20040;-85
2023/12/01 05:18:10;;;;;;;38.35;14.70;;;0.10;99.90;;;-144.05;73.91;57099.47;4975783;28;20094;-84
2023/12/01 05:20:36;;;;;;;44.92;20.80;;;;;;;-144.05;73.73;57120.72;5007310;28;20021;-83
2023/12/01 05:23:09;;;;;;;41.10;15.77;;;0.00;99.90;;;-144.05;74.00;57124.97;4982230;28;20034;-84
2023/12/01 05:25:44;;;;;;;37.30;15.57;;;;;;;-144.05;74.18;57120.72;4972400;28;20023;-87
2023/12/01 05:28:11;;;;;;;38.50;15.20;;;;;;;-144.05;74.12;57103.72;4992159;28;20037;-84
2023/12/01 05:30:44;;;;;;;36.10;15.23;;;0.00;99.90;;;-144.05;73.98;57129.22;4983756;28;20060;-86
2023/12/01 05:33:10;;;;;;;31.25;13.95;;;;;;;-144.05;73.84;57129.22;4990058;28;20023;-84
2023/12/01 05:35:39;;;;;;;35.58;14.45;;;0.10;99.90;;;-144.05;73.42;57110.09;4992884;28;20025;-84
2023/12/01 05:38:06;;;;;;;33.40;15.23;;;;;;;-144.05;73.16;57095.22;4994252;28;20372;-88
2023/12/01 05:40:36;;;;;;;38.95;15.95;;;;;;;-144.05;73.44;57107.97;4959690;28;20039;-86
2023/12/01 05:43:06;;;;;;;40.45;15.90;;;-0.20;99.90;;;-144.05;73.30;57120.72;4979333;28;20031;-87
2023/12/01 05:45:33;;;;;;;42.75;16.98;;;0.10;99.90;;;-144.05;73.39;57124.97;4983813;28;20033;-84
2023/12/01 05:48:02;;;;;;;40.13;16.90;;;;;;;-144.05;72.84;57099.47;4997874;28;20027;-85
2023/12/01 05:50:33;;;;;;;46.28;16.80;;;0.00;99.90;;;-144.05;73.18;57112.22;4994182;28;20412;-83
2023/12/01 05:53:07;;;;;;;43.38;17.92;;;-0.40;99.90;;;-144.05;73.32;57127.09;4985662;28;20084;-82
2023/12/01 05:55:35;;;;;;;54.95;19.50;;;;;;;-144.05;74.04;57114.34;5003552;28;20034;-86
2023/12/01 05:58:11;;;;;;;51.92;19.35;;;-0.30;99.90;;;-144.05;73.79;57124.97;4992189;28;20042;-81
2023/12/01 06:00:39;;;;;;;47.83;17.58;;;;;;;-144.05;73.84;57124.97;5006768;28;20041;-85
2023/12/01 06:03:10;;;;;;;49.33;18.48;;;-0.10;99.90;;;-144.05;73.84;57099.47;4977266;28;20072;-86
2023/12/01 06:05:39;;;;;;;56.33;19.75;;;0.20;99.90;;;-144.05;74.16;57112.22;4976242;28;20035;-85
2023/12/01 06:08:08;;;;;;;56.67;20.58;;;;;;;-144.05;74.00;57112.22;5014583;28;20110;-84
2023/12/01 06:10:35;;;;;;;51.58;19.55;;;;;;;-144.05;74.14;57116.47;4977782;28;20070;-86
2023/12/01 06:13:02;;;;;;;50.58;19.48;;;;;;;-144.05;74.21;57073.97;4980887;28;20078;-84
2023/12/01 06:15:31;;;;;;;47.97;19.58;;;;;;;-144.05;74.00;57061.22;4984682;28;20122;-84
2023/12/01 06:17:59;;;;;;;53.20;20.23;;;-0.30;99.90;;;-144.05;74.33;57124.97;4959089;28;20066;-84
2023/12/01 06:20:26;;;;;;;54.38;20.13;;;;;;;-144.05;74.59;57114.34;4968705;28;20030;-86
2023/12/01 06:23:05;;;;;;;56.00;20.30;;;0.00;99.90;;;-144.05;74.64;57112.22;4976273;28;20116;-86
2023/12/01 06:25:37;;;;;;;52.72;19.77;;;-0.50;99.90;;;-144.05;74.53;57133.44;4988794;28;20051;-84
2023/12/01 06:28:05;;;;;;;60.25;21.90;;;-0.20;99.90;;;-144.05;74.79;57112.22;4971483;28;20031;-85
2023/12/01 06:30:34;;;;;;;50.92;19.80;;;0.10;99.90;;;-144.05;75.00;57110.09;4976510;28;20035;-82
2023/12/01 06:33:02;;;;;;;51.33;20.20;;;;;;;-144.05;74.10;57114.34;4973244;28;20023;-85
2023/12/01 06:35:29;;;;;;;39.28;15.73;;;;;;;-144.05;73.89;57114.34;4997221;28;20031;-80
2023/12/01 06:37:55;;;;;;;41.78;16.65;;;;;;;-144.05;73.69;57105.84;4956196;28;20089;-85
2023/12/01 06:40:21;;;;;;;45.30;16.42;;;;;;;-144.05;73.82;57116.47;4957855;28;20185;-86
2023/12/01 06:42:57;;;;;;;42.15;17.20;;;-0.40;99.90;;;-144.05;73.67;57107.97;4970181;28;20031;-84
2023/12/01 06:45:32;;;;;;;46.20;16.08;;;-0.10;99.90;;;-144.05;74.90;57112.22;4972384;28;20177;-85
2023/12/01 06:47:59;;;;;;;41.60;14.98;;;0.10;99.90;;;-144.05;75.13;57103.72;4967039;28;20119;-82
2023/12/01 06:50:26;;;;;;;35.55;14.30;;;;;;;-144.05;74.35;57144.06;4973797;28;20034;-82
2023/12/01 06:52:53;;;;;;;29.52;12.77;;;;;;;-144.05;73.95;57137.69;4972548;28;20122;-82
2023/12/01 06:55:20;;;;;;;29.77;12.20;;;;;;;-144.05;73.96;57118.59;4971038;28;20059;-83
2023/12/01 06:57:49;;;;;;;35.08;13.00;;;0.00;99.90;;;-144.05;73.02;57095.22;4973064;28;20034;-83
2023/12/01 07:00:30;;;;;;;34.05;14.65;;;;;;;-144.05;72.24;57088.84;4973763;28;20027;-84
2023/12/01 07:02:57;;;;;;;34.38;15.30;;;;;;;-144.05;71.76;57082.47;4980811;28;20054;-86
2023/12/01 07:05:25;;;;;;;31.67;12.82;;;0.00;99.90;;;-144.05;71.78;57146.19;4972307;28;20027;-81
2023/12/01 07:07:53;;;;;;;32.05;11.50;;;;;;;-144.05;71.89;57099.47;4969727;28;20023;-85
2023/12/01 07:10:24;;;;;;;29.20;11.82;;;;;;;-144.05;71.15;57105.84;4980732;28;20430;-85
2023/12/01 07:12:52;;;;;;;26.92;11.38;;;;;;;-144.05;71.23;57107.97;4984586;28;20031;-83
2023/12/01 07:15:20;;;;;;;31.23;12.95;;;;;;;-144.05;70.59;57103.72;4987594;28;20030;-82
2023/12/01 07:17:53;;;;;;;32.03;13.45;;;-0.30;99.90;;;-144.05;72.07;57101.59;4976265;28;20032;-84
2023/12/01 07:20:22;;;;;;;37.10;15.65;;;0.10;99.90;;;-144.05;71.70;57110.09;4983568;28;20484;-84
2023/12/01 07:22:51;;;;;;;34.50;14.40;;;0.10;99.90;;;-144.05;71.27;57103.72;4981011;28;20039;-83
2023/12/01 07:25:22;;;;;;;35.00;14.93;;;-0.50;99.90;;;-144.05;71.35;57110.09;4982311;28;20080;-85
2023/12/01 07:27:54;;;;;;;42.25;17.27;;;;;;;-144.05;71.55;57110.09;4993466;28;20059;-82
2023/12/01 07:30:21;;;;;;;48.35;18.48;;;;;;;-144.05;71.64;57141.94;4975174;28;20026;-84
2023/12/01 07:32:49;;;;;;;40.42;17.20;;;;;;;-144.05;71.40;57101.59;5017210;28;20060;-84
2023/12/01 07:35:16;;;;;;;43.08;18.45;;;0.10;99.90;;;-144.05;71.16;57133.44;4963466;28;20027;-83
2023/12/01 07:37:45;;;;;;;48.30;18.67;;;0.30;99.90;;;-144.05;71.57;57146.19;5000181;28;20116;-86
2023/12/01 07:40:19;;;;;;;47.72;17.98;;;0.20;99.90;;;-144.05;71.24;57080.34;4988067;28;20108;-83
2023/12/01 07:42:50;;;;;;;46.03;18.40;;;;;;;-144.05;71.27;57107.97;4981729;28;20029;-83
2023/12/01 07:45:18;;;;;;;41.08;17.60;;;;;;;-144.05;71.45;57124.97;4985458;28;20042;-83
2023/12/01 07:47:46;;;;;;;42.95;18.33;;;;;;;-144.05;70.90;57118.59;4994174;28;20019;-83
2023/12/01 07:50:15;;;;;;;43.05;16.55;;;;;;;-144.05;70.96;57135.56;4985237;28;20039;-84
2023/12/01 07:52:45;;;;;;;41.60;17.40;;;0.20;99.90;;;-144.05;71.58;57095.22;4992993;28;20062;-84
2023/12/01 07:55:12;;;;;;;46.55;19.52;;;;;;;-144.05;70.85;57101.59;4983506;28;20161;-84
2023/12/01 07:57:39;;;;;;;40.42;17.70;;;;;;;-144.05;70.99;57129.22;4997744;28;20062;-85
2023/12/01 08:00:14;;;;;;;45.83;17.83;;;0.20;99.90;;;-144.05;71.25;57129.22;4967256;28;20539;-85
2023/12/01 08:02:44;;;;;;;44.95;18.85;;;;;;;-144.05;71.35;57131.31;4982700;28;20130;-85
2023/12/01 08:05:14;;;;;;;48.25;18.13;;;;;;;-144.05;70.64;57071.84;4994163;28;20035;-86
2023/12/01 08:07:52;;;;;;;42.47;19.83;;;0.10;99.90;;;-144.05;70.95;57122.84;5012403;28;20028;-84
2023/12/01 08:10:22;;;;;;;43.15;18.95;;;0.00;99.90;;;-144.05;71.20;57103.72;4981184;28;20027;-84
2023/12/01 08:12:56;;;;;;;52.05;21.17;;;0.10;99.90;;;-144.05;70.65;57152.56;4965419;28;20395;-84
2023/12/01 08:15:23;;;;;;;45.17;19.67;;;;;;;-144.05;71.06;57076.09;4978427;28;20138;-83
2023/12/01 08:17:50;;;;;;;45.67;19.98;;;;;;;-144.05;70.69;57088.84;4990802;28;20595;-86
2023/12/01 08:20:16;;;;;;;58.25;21.98;;;;;;;-144.05;71.15;57129.22;4986235;28;20057;-85
2023/12/01 08:22:43;;;;;;;61.67;24.67;;;;;;;-144.05;71.57;57116.47;5007256;28;20099;-84
2023/12/01 08:25:10;;;;;;;56.72;22.40;;;;;;;-144.05;71.33;57103.72;4982278;28;20545;-84
2023/12/01 08:27:37;;;;;;;53.83;22.55;;;;;;;-144.05;71.50;57105.84;4977712;28;20054;-84
2023/12/01 08:30:05;;;;;;;54.10;22.92;;;;;;;-144.05;72.04;57101.59;4995115;28;20099;-84
2023/12/01 08:32:31;;;;;;;55.13;23.90;;;;;;;-144.05;71.85;57103.72;4994940;28;20136;-85
2023/12/01 08:34:57;;;;;;;54.58;23.63;;;;;;;-144.05;71.30;57120.72;4986743;28;20038;-85
2023/12/01 08:37:24;;;;;;;55.08;22.13;;;;;;;-144.05;71.40;57082.47;4989728;28;20046;-86
2023/12/01 08:39:50;;;;;;;53.90;22.92;;;;;;;-144.05;70.99;57071.84;4992293;28;20035;-86
2023/12/01 08:42:20;;;;;;;55.78;21.95;;;;;;;-144.05;71.68;57116.47;4996444;28;20038;-84
2023/12/01 08:44:47;;;;;;;56.50;22.35;;;;;;;-144.05;71.58;57099.47;5035696;28;20058;-84
2023/12/01 08:47:15;;;;;;;58.28;24.80;;;;;;;-144.05;71.84;57120.72;4979205;28;20032;-85
2023/12/01 08:49:43;;;;;;;57.20;23.30;;;;;;;-144.05;71.54;57120.72;4966934;28;20035;-85
2023/12/01 08:52:09;;;;;;;54.90;23.10;;;;;;;-144.05;71.52;57156.81;5061962;28;20031;-84
2023/12/01 08:54:35;;;;;;;48.92;22.98;;;;;;;-144.05;70.89;57095.22;4991508;28;20039;-85
2023/12/01 08:57:02;;;;;;;60.08;24.10;;;;;;;-144.05;71.06;57101.59;4990110;28;20026;-85
2023/12/01 08:59:28;;;;;;;54.97;23.88;;;;;;;-144.05;71.05;57099.47;4971646;28;20039;-83
2023/12/01 09:01:54;;;;;;;61.33;25.20;;;;;;;-144.05;70.88;57090.97;4978515;28;20034;-82
2023/12/01 09:04:21;;;;;;;58.75;24.63;;;;;;;-144.05;71.00;57097.34;5012628;28;20151;-84
2023/12/01 09:06:47;;;;;;;51.63;21.85;;;;;;;-144.05;70.61;57095.22;5006657;28;20077;-84
2023/12/01 09:09:13;;;;;;;52.22;22.25;;;;;;;-144.05;70.80;57137.69;4975252;28;20042;-83
2023/12/01 09:11:40;;;;;;;50.40;22.15;;;;;;;-144.05;70.58;57116.47;4980536;28;20063;-83
2023/12/01 09:14:06;;;;;;;50.10;21.95;;;;;;;-144.05;70.53;57114.34;4973843;28;20391;-84
2023/12/01 09:16:32;;;;;;;51.50;21.88;;;;;;;-144.05;70.83;57112.22;4980419;28;20091;-84
2023/12/01 09:18:58;;;;;;;49.35;20.92;;;;;;;-144.05;70.46;57080.34;4970164;28;20039;-84
2023/12/01 09:21:24;;;;;;;50.90;21.10;;;;;;;-144.05;70.80;57103.72;4984894;28;20074;-84
2023/12/01 09:23:51;;;;;;;56.53;22.75;;;;;;;-144.05;70.95;57073.97;5002529;28;20385;-86
2023/12/01 09:26:20;;;;;;;47.92;21.33;;;0.30;99.90;;;-144.05;70.54;57095.22;4976380;28;20058;-85
2023/12/01 09:28:50;;;;;;;48.38;22.60;;;;;;;-144.05;69.97;57093.09;4985319;28;20072;-83
2023/12/01 09:31:17;;;;;;;50.15;23.63;;;;;;;-144.05;70.18;57071.84;4998603;28;20094;-84
2023/12/01 09:33:43;;;;;;;49.20;20.52;;;;;;;-144.05;70.37;57105.84;4981457;28;20065;-84
2023/12/01 09:36:11;;;;;;;52.33;22.50;;;0.00;99.90;;;-144.05;70.01;57116.47;4980190;28;20052;-84
2023/12/01 09:38:37;;;;;;;47.70;22.20;;;;;;;-144.05;70.51;57071.84;4989035;28;20093;-86
2023/12/01 09:41:03;;;;;;;52.95;22.42;;;;;;;-144.05;70.22;57095.22;4988687;28;20027;-85
2023/12/01 09:43:31;;;;;;;48.40;21.35;;;0.50;99.90;;;-144.05;70.63;57124.97;4965387;28;20031;-82
2023/12/01 09:45:58;;;;;;;55.53;23.05;;;;;;;-144.05;70.68;57110.09;4968353;28;20120;-85
2023/12/01 09:48:25;;;;;;;47.85;21.30;;;;;;;-144.05;70.31;57084.59;5000598;28;20031;-84
2023/12/01 09:50:52;;;;;;;45.83;19.70;;;;;;;-144.05;70.33;57112.22;5001662;28;20109;-84
2023/12/01 09:53:19;;;;;;;48.17;21.05;;;;;;;-144.05;70.07;57112.22;4987969;28;20061;-83
2023/12/01 09:55:45;;;;;;;50.60;22.40;;;;;;;-144.05;69.58;57084.59;4997346;28;20066;-85
2023/12/01 09:58:14;;;;;;;45.70;20.77;;;;;;;-144.05;69.14;57112.22;4994709;28;20630;-83
2023/12/01 10:00:40;;;;;;;46.47;21.90;;;;;;;-144.05;68.87;57069.72;4999469;28;20062;-84
2023/12/01 10:03:06;;;;;;;47.60;21.55;;;;;;;-144.05;69.00;57103.72;4975249;28;20090;-84
2023/12/01 10:05:34;;;;;;;52.65;21.95;;;;;;;-144.05;69.23;57082.47;5012099;28;20036;-82
2023/12/01 10:08:00;;;;;;;44.75;20.88;;;;;;;-144.05;69.02;57088.84;4986867;28;20122;-82
2023/12/01 10:10:28;;;;;;;51.00;20.40;;;;;;;-144.05;69.05;57082.47;4980274;28;20065;-85
2023/12/01 10:12:58;;;;;;;47.70;21.25;;;0.20;99.90;;;-144.05;68.69;57116.47;4966695;28;20102;-83
2023/12/01 10:15:27;;;;;;;49.65;20.23;;;0.10;99.90;;;-144.05;68.41;57095.22;4979110;28;20073;-84
2023/12/01 10:18:07;;;;;;;46.63;21.35;;;;;;;-144.05;68.50;57097.34;5010810;28;20028;-83
2023/12/01 10:20:35;;;;;;;48.08;19.83;;;;;;;-144.05;68.96;57110.09;4976248;28;20035;-84
2023/12/01 10:23:15;;;;;;;50.13;19.75;;;;;;;-144.05;69.33;57101.59;4979032;28;20456;-84
2023/12/01 10:25:46;;;;;;;45.42;19.75;;;;;;;-144.05;68.94;57082.47;4968408;28;20135;-82
2023/12/01 10:28:13;;;;;;;46.25;21.42;;;;;;;-144.05;68.71;57116.47;4993413;28;20030;-84
2023/12/01 10:30:56;;;;;;;51.00;21.30;;;0.40;99.90;;;-144.05;69.20;57099.47;5037667;28;20029;-82
2023/12/01 10:33:24;;;;;;;47.58;20.17;;;0.10;99.90;;;-144.05;69.41;57131.31;4998932;28;20049;-84
2023/12/01 10:36:09;;;;;;;48.88;20.67;;;0.70;99.90;;;-144.05;68.96;57112.22;4996267;28;20039;-83
2023/12/01 10:38:36;;;;;;;51.33;20.00;;;0.30;99.90;;;-144.05;69.44;57090.97;4980623;28;20051;-84
2023/12/01 10:41:05;;;;;;;47.03;20.58;;;0.40;99.90;;;-144.05;68.98;57103.72;4993599;28;20023;-84
2023/12/01 10:43:32;;;;;;;47.28;20.65;;;0.40;99.90;;;-144.05;68.78;57107.97;4973202;28;20096;-84
2023/12/01 10:46:05;;;;;;;54.20;21.00;;;0.30;99.90;;;-144.05;69.00;57105.84;4972156;28;20069;-84